Time;durP1;ratioP1;P1;durP2;ratioP2;P2;SDS_P1;SDS_P2;PMS_P1;PMS_P2;Temp;Humidity;BMP_temperature;BMP_pressure;BME280_temperature;BME280_humidity;BME280_pressure;Samples;Min_cycle;Max_cycle;Signal;HPM_P1;HPM_P2
2022/04/08 00:00:21;;;;;;;5.63;0.60;;;7.60;99.90;;;;;;4935602;29;20658;-73
2022/04/08 00:02:50;;;;;;;3.30;0.60;;;7.60;99.90;;;;;;4935481;29;20536;-75
2022/04/08 00:05:17;;;;;;;0.80;0.53;;;7.70;99.90;;;;;;4935482;29;20209;-73
2022/04/08 00:07:45;;;;;;;1.90;0.77;;;7.70;99.90;;;;;;4933772;29;20243;-74
2022/04/08 00:10:13;;;;;;;0.97;0.50;;;7.80;99.90;;;;;;4935114;29;20300;-74
2022/04/08 00:12:40;;;;;;;5.70;1.00;;;7.80;99.90;;;;;;4935469;29;20209;-74
2022/04/08 00:15:07;;;;;;;0.63;0.40;;;7.80;99.90;;;;;;4934947;29;20216;-74
2022/04/08 00:17:34;;;;;;;2.77;0.73;;;7.80;99.90;;;;;;4935344;29;20227;-73
2022/04/08 00:20:01;;;;;;;0.70;0.50;;;7.70;99.90;;;;;;4935345;29;20659;-74
2022/04/08 00:22:28;;;;;;;3.70;0.63;;;7.80;99.90;;;;;;4935133;29;20233;-74
2022/04/08 00:24:56;;;;;;;1.13;0.53;;;7.80;99.90;;;;;;4917762;29;20210;-75
2022/04/08 00:27:23;;;;;;;2.30;0.50;;;7.80;99.90;;;;;;4916424;29;20229;-75
2022/04/08 00:29:50;;;;;;;1.40;0.47;;;7.80;99.90;;;;;;4916194;29;20209;-74
2022/04/08 00:32:17;;;;;;;1.23;0.40;;;7.80;99.90;;;;;;4915287;29;20607;-74
2022/04/08 00:34:44;;;;;;;2.80;0.50;;;7.90;99.90;;;;;;4915707;29;20213;-74
2022/04/08 00:37:11;;;;;;;2.23;0.50;;;7.80;99.90;;;;;;4915991;29;20216;-75
2022/04/08 00:39:38;;;;;;;1.93;0.70;;;7.70;99.90;;;;;;4917095;29;20300;-73
2022/04/08 00:42:07;;;;;;;2.63;0.60;;;7.80;99.90;;;;;;4934728;29;20231;-74
2022/04/08 00:44:34;;;;;;;1.23;0.50;;;7.90;99.90;;;;;;4934677;29;20205;-75
2022/04/08 00:47:01;;;;;;;2.90;0.80;;;7.90;99.90;;;;;;4934578;29;20211;-74
2022/04/08 00:49:27;;;;;;;1.40;0.50;;;7.90;99.90;;;;;;4934639;29;20208;-73
2022/04/08 00:51:54;;;;;;;2.00;0.60;;;8.00;99.90;;;;;;4934876;29;20237;-74
2022/04/08 00:54:22;;;;;;;1.90;0.60;;;8.00;99.90;;;;;;4934500;29;20243;-74
2022/04/08 00:56:50;;;;;;;5.17;0.50;;;7.90;99.90;;;;;;4933546;29;20204;-74
2022/04/08 00:59:18;;;;;;;2.73;0.60;;;7.90;99.90;;;;;;4934734;29;20205;-73
2022/04/08 01:01:46;;;;;;;2.40;0.50;;;8.00;99.90;;;;;;4934209;29;20225;-73
2022/04/08 01:04:13;;;;;;;1.80;0.57;;;7.90;99.90;;;;;;4934417;29;20204;-73
2022/04/08 01:06:42;;;;;;;1.57;0.40;;;7.80;99.90;;;;;;4934583;29;20219;-74
2022/04/08 01:09:10;;;;;;;3.00;0.60;;;7.90;99.90;;;;;;4934297;29;20602;-74
2022/04/08 01:11:37;;;;;;;1.17;0.60;;;7.90;99.90;;;;;;4934682;29;20233;-74
2022/04/08 01:14:10;;;;;;;0.57;0.47;;;7.80;99.90;;;;;;4933849;29;20213;-74
2022/04/08 01:16:39;;;;;;;1.70;0.90;;;7.90;99.90;;;;;;4934892;29;20212;-73
2022/04/08 01:19:06;;;;;;;2.10;0.90;;;7.90;99.90;;;;;;4934626;29;20208;-74
2022/04/08 01:21:34;;;;;;;2.03;0.60;;;7.80;99.90;;;;;;4934271;29;20228;-74
2022/04/08 01:24:02;;;;;;;2.43;0.80;;;7.80;99.90;;;;;;4934556;29;20223;-73
2022/04/08 01:26:30;;;;;;;1.33;0.50;;;7.80;99.90;;;;;;4934241;29;20219;-73
2022/04/08 01:28:57;;;;;;;1.37;0.60;;;7.70;99.90;;;;;;4932291;29;20236;-73
2022/04/08 01:31:25;;;;;;;0.80;0.60;;;7.60;99.90;;;;;;4915070;29;20241;-72
2022/04/08 01:33:52;;;;;;;1.20;0.40;;;7.60;99.90;;;;;;4915246;29;20655;-73
2022/04/08 01:36:19;;;;;;;2.93;0.73;;;7.60;99.90;;;;;;4915661;29;20209;-74
2022/04/08 01:38:46;;;;;;;1.37;0.60;;;7.60;99.90;;;;;;4915625;29;20213;-75
2022/04/08 01:41:16;;;;;;;2.00;0.90;;;7.50;99.90;;;;;;4927600;29;20238;-73
2022/04/08 01:43:44;;;;;;;3.70;0.77;;;7.50;99.90;;;;;;4935811;29;20209;-71
2022/04/08 01:46:11;;;;;;;2.43;0.50;;;7.40;99.90;;;;;;4938105;29;20219;-74
2022/04/08 01:48:37;;;;;;;1.37;0.77;;;7.40;99.90;;;;;;4923264;29;20233;-74
2022/04/08 01:51:04;;;;;;;2.17;0.70;;;7.40;99.90;;;;;;4918640;29;20226;-72
2022/04/08 01:53:31;;;;;;;4.03;0.83;;;7.30;99.90;;;;;;4919514;29;20213;-74
2022/04/08 01:55:58;;;;;;;6.40;2.03;;;7.30;99.90;;;;;;4918461;29;20206;-73
2022/04/08 01:58:25;;;;;;;1.43;0.60;;;7.20;99.90;;;;;;4918411;29;20668;-73
2022/04/08 02:00:53;;;;;;;3.77;0.80;;;7.20;99.90;;;;;;4918602;29;20232;-74
2022/04/08 02:03:20;;;;;;;2.57;0.73;;;7.20;99.90;;;;;;4918519;29;20206;-73
2022/04/08 02:05:47;;;;;;;2.10;0.97;;;7.20;99.90;;;;;;4928441;29;20204;-73
2022/04/08 02:08:14;;;;;;;2.40;0.70;;;7.20;99.90;;;;;;4938089;29;20240;-73
2022/04/08 02:10:41;;;;;;;1.67;0.77;;;7.20;99.90;;;;;;4937709;29;20232;-73
2022/04/08 02:13:08;;;;;;;2.80;0.70;;;7.10;99.90;;;;;;4937532;29;20662;-74
2022/04/08 02:15:36;;;;;;;1.43;0.50;;;7.20;99.90;;;;;;4937751;29;20951;-75
2022/04/08 02:18:05;;;;;;;1.97;1.27;;;7.20;99.90;;;;;;4937280;29;20216;-73
2022/04/08 02:20:32;;;;;;;3.83;0.67;;;7.30;99.90;;;;;;4937160;29;20683;-74
2022/04/08 02:23:00;;;;;;;3.83;0.80;;;7.20;99.90;;;;;;4937480;29;20209;-73
2022/04/08 02:25:28;;;;;;;5.63;1.00;;;7.20;99.90;;;;;;4937329;29;20215;-74
2022/04/08 02:27:55;;;;;;;5.33;0.90;;;7.20;99.90;;;;;;4937785;29;20240;-73
2022/04/08 02:30:22;;;;;;;0.90;0.57;;;7.30;99.90;;;;;;4937122;29;20216;-75
2022/04/08 02:32:49;;;;;;;0.80;0.70;;;7.10;99.90;;;;;;4936393;29;20213;-74
2022/04/08 02:35:17;;;;;;;1.03;0.80;;;7.00;99.90;;;;;;4937244;29;20267;-72
2022/04/08 02:37:44;;;;;;;3.77;1.10;;;6.90;99.90;;;;;;4936999;29;20209;-73
2022/04/08 02:40:12;;;;;;;1.97;0.80;;;6.90;99.90;;;;;;4937011;29;20205;-73
2022/04/08 02:42:39;;;;;;;4.47;1.10;;;6.90;99.90;;;;;;4936789;29;20698;-74
2022/04/08 02:45:06;;;;;;;1.50;0.90;;;6.90;99.90;;;;;;4937422;29;20209;-73
2022/04/08 02:47:39;;;;;;;1.67;0.80;;;6.90;99.90;;;;;;4931961;29;20694;-73
2022/04/08 02:50:07;;;;;;;0.80;0.73;;;6.90;99.90;;;;;;4936573;29;20217;-74
2022/04/08 02:52:35;;;;;;;2.50;0.90;;;6.90;99.90;;;;;;4936859;29;20233;-73
2022/04/08 02:55:02;;;;;;;1.83;0.80;;;6.80;99.90;;;;;;4936195;29;20209;-74
2022/04/08 02:57:29;;;;;;;1.70;0.80;;;6.80;99.90;;;;;;4936862;29;20209;-73
2022/04/08 02:59:55;;;;;;;2.30;1.00;;;6.90;99.90;;;;;;4936686;29;20251;-73
2022/04/08 03:02:22;;;;;;;2.53;1.03;;;7.00;99.90;;;;;;4936583;29;20729;-75
2022/04/08 03:04:49;;;;;;;2.17;0.90;;;7.00;99.90;;;;;;4936614;29;20217;-73
2022/04/08 03:07:16;;;;;;;5.27;1.03;;;6.90;99.90;;;;;;4936590;29;20220;-73
2022/04/08 03:09:45;;;;;;;4.83;1.10;;;6.80;99.90;;;;;;4936477;29;20327;-72
2022/04/08 03:12:12;;;;;;;3.17;1.10;;;6.90;99.90;;;;;;4936447;29;20576;-74
2022/04/08 03:14:38;;;;;;;2.47;1.40;;;7.00;99.90;;;;;;4936738;29;20212;-73
2022/04/08 03:17:06;;;;;;;1.13;0.80;;;6.90;99.90;;;;;;4936150;29;20219;-73
2022/04/08 03:19:32;;;;;;;1.63;1.10;;;7.00;99.90;;;;;;4934924;29;20219;-73
2022/04/08 03:21:59;;;;;;;2.00;1.00;;;7.00;99.90;;;;;;4935571;29;20747;-75
2022/04/08 03:24:26;;;;;;;3.37;1.07;;;7.00;99.90;;;;;;4936411;29;20295;-73
2022/04/08 03:26:54;;;;;;;3.30;1.10;;;7.10;99.90;;;;;;4936488;29;20209;-73
2022/04/08 03:29:21;;;;;;;1.27;0.93;;;7.00;99.90;;;;;;4935793;29;20241;-73
2022/04/08 03:31:47;;;;;;;2.73;1.20;;;7.10;99.90;;;;;;4936152;29;20232;-73
2022/04/08 03:34:14;;;;;;;4.40;1.30;;;7.00;99.90;;;;;;4936144;29;20209;-75
2022/04/08 03:36:41;;;;;;;3.67;0.73;;;7.10;99.90;;;;;;4932470;29;20213;-72
2022/04/08 03:39:08;;;;;;;3.80;0.83;;;7.20;99.90;;;;;;4916530;29;20212;-74
2022/04/08 03:41:35;;;;;;;1.97;0.80;;;7.20;99.90;;;;;;4931921;29;20231;-72
2022/04/08 03:44:04;;;;;;;4.57;1.10;;;7.10;99.90;;;;;;4935836;29;20301;-74
2022/04/08 03:46:31;;;;;;;2.47;0.80;;;7.00;99.90;;;;;;4922440;29;20208;-76
2022/04/08 03:48:58;;;;;;;1.77;1.30;;;7.10;99.90;;;;;;4935428;29;20236;-75
2022/04/08 03:51:25;;;;;;;1.70;0.83;;;7.20;99.90;;;;;;4935795;29;20233;-75
2022/04/08 03:53:51;;;;;;;2.23;0.90;;;7.30;99.90;;;;;;4935370;29;20659;-73
2022/04/08 03:56:18;;;;;;;1.17;0.80;;;7.30;99.90;;;;;;4935576;29;20798;-73
2022/04/08 03:58:45;;;;;;;1.20;0.80;;;7.20;99.90;;;;;;4935518;29;20221;-74
2022/04/08 04:01:13;;;;;;;1.43;0.73;;;7.10;99.90;;;;;;4935574;29;20683;-73
2022/04/08 04:03:40;;;;;;;1.63;0.90;;;7.00;99.90;;;;;;4935632;29;20236;-72
2022/04/08 04:06:07;;;;;;;1.40;0.83;;;7.00;99.90;;;;;;4922327;29;20213;-74
2022/04/08 04:08:34;;;;;;;8.60;0.97;;;6.90;99.90;;;;;;4916198;29;20237;-74
2022/04/08 04:11:00;;;;;;;2.20;0.97;;;6.90;99.90;;;;;;4916421;29;20240;-74
2022/04/08 04:13:27;;;;;;;4.83;1.10;;;6.80;99.90;;;;;;4916556;29;20301;-73
2022/04/08 04:15:54;;;;;;;1.57;0.90;;;6.70;99.90;;;;;;4916125;29;20224;-75
2022/04/08 04:18:22;;;;;;;1.87;0.80;;;6.70;99.90;;;;;;4916252;29;20215;-74
2022/04/08 04:20:49;;;;;;;1.50;0.70;;;6.70;99.90;;;;;;4916357;29;20241;-73
2022/04/08 04:23:16;;;;;;;2.00;0.87;;;6.70;99.90;;;;;;4916085;29;20983;-74
2022/04/08 04:25:42;;;;;;;4.63;1.00;;;6.70;99.90;;;;;;4916234;29;20214;-73
2022/04/08 04:28:09;;;;;;;1.13;0.70;;;6.80;99.90;;;;;;4916321;29;20216;-73
2022/04/08 04:30:36;;;;;;;0.80;0.50;;;6.80;99.90;;;;;;4915892;29;20237;-75
2022/04/08 04:33:03;;;;;;;2.93;0.80;;;6.80;99.90;;;;;;4915955;29;20578;-72
2022/04/08 04:35:31;;;;;;;4.63;0.90;;;6.80;99.90;;;;;;4915780;29;20210;-74
2022/04/08 04:37:58;;;;;;;2.30;0.70;;;6.80;99.90;;;;;;4915863;29;20293;-74
2022/04/08 04:40:25;;;;;;;5.10;0.90;;;6.80;99.90;;;;;;4921904;29;20217;-74
2022/04/08 04:42:52;;;;;;;0.83;0.67;;;6.90;99.90;;;;;;4934392;29;20284;-74
2022/04/08 04:45:19;;;;;;;1.60;0.83;;;6.80;99.90;;;;;;4934626;29;20212;-75
2022/04/08 04:47:46;;;;;;;2.17;0.87;;;6.70;99.90;;;;;;4915552;29;20322;-73
2022/04/08 04:50:13;;;;;;;2.03;0.90;;;6.70;99.90;;;;;;4915362;29;20248;-74
2022/04/08 04:52:41;;;;;;;1.37;0.70;;;6.70;99.90;;;;;;4915280;29;20236;-74
2022/04/08 04:55:08;;;;;;;4.53;0.90;;;6.70;99.90;;;;;;4914716;29;20675;-73
2022/04/08 04:57:35;;;;;;;5.87;0.93;;;6.70;99.90;;;;;;4915401;29;20209;-73
2022/04/08 05:00:03;;;;;;;3.63;0.90;;;6.70;99.90;;;;;;4915410;29;20309;-72
2022/04/08 05:02:30;;;;;;;2.07;1.17;;;6.70;99.90;;;;;;4915072;29;20229;-71
2022/04/08 05:04:56;;;;;;;5.63;0.90;;;6.80;99.90;;;;;;4915246;29;20209;-72
2022/04/08 05:07:25;;;;;;;3.10;0.90;;;6.70;99.90;;;;;;4914896;29;20233;-75
2022/04/08 05:09:53;;;;;;;2.20;0.80;;;6.80;99.90;;;;;;4915213;29;20595;-73
2022/04/08 05:12:20;;;;;;;2.67;0.80;;;6.80;99.90;;;;;;4915722;29;20234;-71
2022/04/08 05:14:47;;;;;;;2.40;0.80;;;6.80;99.90;;;;;;4915544;29;20218;-73
2022/04/08 05:17:13;;;;;;;1.70;0.80;;;6.80;99.90;;;;;;4915029;29;20579;-72
2022/04/08 05:19:40;;;;;;;3.03;0.70;;;6.80;99.90;;;;;;4914721;29;20210;-73
2022/04/08 05:22:07;;;;;;;2.70;0.70;;;6.80;99.90;;;;;;4915240;29;20720;-74
2022/04/08 05:24:34;;;;;;;3.43;1.17;;;6.80;99.90;;;;;;4933204;29;20219;-74
2022/04/08 05:27:02;;;;;;;3.23;0.60;;;6.80;99.90;;;;;;4934879;29;20765;-74
2022/04/08 05:29:29;;;;;;;1.70;0.60;;;6.80;99.90;;;;;;4935352;29;20236;-75
2022/04/08 05:31:56;;;;;;;2.97;0.90;;;6.90;99.90;;;;;;4934786;29;20319;-73
2022/04/08 05:34:23;;;;;;;2.40;0.90;;;7.00;99.90;;;;;;4935435;29;20562;-75
2022/04/08 05:36:50;;;;;;;2.13;0.87;;;7.10;99.90;;;;;;4935084;29;20205;-74
2022/04/08 05:39:17;;;;;;;4.10;0.80;;;7.00;99.90;;;;;;4933011;29;20287;-75
2022/04/08 05:41:43;;;;;;;1.80;0.80;;;7.00;99.90;;;;;;4934758;29;20239;-74
2022/04/08 05:44:11;;;;;;;1.87;0.93;;;7.10;99.90;;;;;;4935279;29;20208;-73
2022/04/08 05:46:38;;;;;;;0.80;0.60;;;6.90;99.90;;;;;;4933733;29;20216;-74
2022/04/08 05:49:05;;;;;;;5.67;1.20;;;7.00;99.90;;;;;;4923836;29;20229;-72
2022/04/08 05:51:32;;;;;;;2.23;0.80;;;7.10;99.90;;;;;;4931418;29;20235;-74
2022/04/08 05:53:59;;;;;;;2.70;1.03;;;7.20;99.90;;;;;;4933942;29;20299;-74
2022/04/08 05:56:26;;;;;;;1.23;0.67;;;7.30;99.90;;;;;;4934776;29;20213;-74
2022/04/08 05:58:53;;;;;;;6.10;0.83;;;7.40;99.90;;;;;;4934895;29;20685;-74
2022/04/08 06:01:21;;;;;;;1.73;0.80;;;7.40;99.90;;;;;;4934855;29;20228;-74
2022/04/08 06:03:47;;;;;;;1.47;0.60;;;7.60;99.90;;;;;;4935256;29;20223;-74
2022/04/08 06:06:14;;;;;;;2.60;0.60;;;7.60;99.90;;;;;;4933022;29;20215;-74
2022/04/08 06:08:41;;;;;;;3.17;1.20;;;7.70;99.90;;;;;;4915769;29;20220;-73
2022/04/08 06:11:08;;;;;;;4.53;0.67;;;7.80;99.90;;;;;;4915817;29;20241;-75
2022/04/08 06:13:34;;;;;;;4.03;0.80;;;7.90;99.90;;;;;;4915931;29;20217;-74
2022/04/08 06:16:01;;;;;;;2.30;0.73;;;7.90;99.90;;;;;;4916011;29;20217;-73
2022/04/08 06:18:29;;;;;;;1.83;0.80;;;8.10;99.90;;;;;;4916188;29;20214;-74
2022/04/08 06:20:56;;;;;;;2.00;0.70;;;8.10;99.90;;;;;;4915743;29;20230;-73
2022/04/08 06:23:23;;;;;;;4.37;0.73;;;8.20;99.90;;;;;;4915372;29;20297;-76
2022/04/08 06:25:50;;;;;;;1.80;1.03;;;8.20;99.90;;;;;;4915474;29;20210;-75
2022/04/08 06:28:17;;;;;;;1.60;0.87;;;8.30;99.90;;;;;;4915898;29;20304;-74
2022/04/08 06:30:43;;;;;;;0.90;0.70;;;8.30;99.90;;;;;;4916823;29;20584;-74
2022/04/08 06:33:10;;;;;;;3.00;1.00;;;8.40;99.90;;;;;;4919199;29;20216;-74
2022/04/08 06:35:38;;;;;;;4.63;0.77;;;8.30;99.90;;;;;;4931715;29;20200;-75
2022/04/08 06:38:07;;;;;;;3.47;0.77;;;8.40;99.90;;;;;;4935824;29;20205;-75
2022/04/08 06:40:37;;;;;;;8.40;1.07;;;8.50;99.90;;;;;;4937644;29;20315;-74
2022/04/08 06:43:05;;;;;;;1.87;0.60;;;8.40;99.90;;;;;;4937666;29;20666;-73
2022/04/08 06:45:32;;;;;;;3.00;0.80;;;8.50;99.90;;;;;;4937595;29;20610;-74
2022/04/08 06:47:59;;;;;;;1.33;0.60;;;8.30;99.90;;;;;;4934535;29;20208;-75
2022/04/08 06:50:27;;;;;;;4.93;0.80;;;8.30;99.90;;;;;;4935402;29;20720;-76
2022/04/08 06:52:59;;;;;;;2.93;0.70;;;8.30;99.90;;;;;;4937460;29;20300;-74
2022/04/08 06:55:26;;;;;;;1.20;0.57;;;8.20;99.90;;;;;;4937366;29;20658;-74
2022/04/08 06:57:52;;;;;;;1.30;0.67;;;8.20;99.90;;;;;;4938042;29;20205;-75
2022/04/08 07:00:19;;;;;;;1.20;0.70;;;8.10;99.90;;;;;;4937785;29;20213;-76
2022/04/08 07:02:46;;;;;;;5.00;0.70;;;8.20;99.90;;;;;;4936478;29;20205;-75
2022/04/08 07:05:13;;;;;;;2.03;0.70;;;8.30;99.90;;;;;;4937380;29;20209;-75
2022/04/08 07:07:40;;;;;;;1.83;0.60;;;8.30;99.90;;;;;;4934692;29;20220;-74
2022/04/08 07:10:09;;;;;;;4.17;0.80;;;8.20;99.90;;;;;;4936712;29;20335;-75
2022/04/08 07:12:36;;;;;;;5.60;0.80;;;8.30;99.90;;;;;;4936900;29;20229;-74
2022/04/08 07:15:03;;;;;;;2.13;0.60;;;8.20;99.90;;;;;;4937200;29;20674;-75
2022/04/08 07:17:31;;;;;;;2.70;0.70;;;8.30;99.90;;;;;;4937258;29;20209;-74
2022/04/08 07:19:58;;;;;;;3.90;0.80;;;8.30;99.90;;;;;;4936943;29;20217;-74
2022/04/08 07:22:25;;;;;;;3.20;0.67;;;8.40;99.90;;;;;;4936192;29;20563;-74
2022/04/08 07:24:53;;;;;;;1.53;0.70;;;8.30;99.90;;;;;;4934912;29;20213;-74
2022/04/08 07:27:22;;;;;;;0.70;0.60;;;8.30;99.90;;;;;;4931707;29;20201;-75
2022/04/08 07:29:50;;;;;;;1.43;0.60;;;8.40;99.90;;;;;;4936676;29;20221;-72
2022/04/08 07:32:20;;;;;;;3.50;0.83;;;8.60;99.90;;;;;;4936052;29;20228;-74
2022/04/08 07:34:48;;;;;;;2.33;0.80;;;8.80;99.90;;;;;;4936154;29;20288;-71
2022/04/08 07:37:15;;;;;;;2.07;0.70;;;8.60;99.90;;;;;;4933119;29;20205;-74
2022/04/08 07:39:43;;;;;;;4.93;0.90;;;8.70;99.90;;;;;;4934886;29;20209;-74
2022/04/08 07:42:10;;;;;;;4.03;0.63;;;8.70;99.90;;;;;;4932685;29;20315;-76
2022/04/08 07:44:38;;;;;;;1.67;0.60;;;8.80;99.90;;;;;;4934983;29;20215;-73
2022/04/08 07:47:06;;;;;;;2.47;0.67;;;8.70;99.90;;;;;;4935419;29;20209;-75
2022/04/08 07:49:32;;;;;;;2.10;1.23;;;8.90;99.90;;;;;;4922835;29;20282;-73
2022/04/08 07:51:59;;;;;;;2.03;0.73;;;9.00;99.90;;;;;;4935819;29;20225;-71
2022/04/08 07:54:26;;;;;;;1.90;0.80;;;9.10;99.90;;;;;;4935653;29;20692;-75
2022/04/08 07:56:53;;;;;;;1.43;0.67;;;9.20;99.90;;;;;;4936223;29;20228;-76
2022/04/08 07:59:20;;;;;;;2.93;0.67;;;9.30;99.90;;;;;;4936007;29;20212;-73
2022/04/08 08:01:48;;;;;;;3.57;0.57;;;9.10;99.90;;;;;;4935464;29;20706;-73
2022/04/08 08:04:15;;;;;;;0.90;0.40;;;8.90;99.90;;;;;;4935834;29;20738;-74
2022/04/08 08:06:42;;;;;;;0.93;0.50;;;8.90;99.90;;;;;;4934889;29;20615;-74
2022/04/08 08:09:09;;;;;;;2.43;0.60;;;9.00;99.90;;;;;;4935725;29;20217;-74
2022/04/08 08:11:36;;;;;;;3.50;1.03;;;9.00;99.90;;;;;;4919808;29;20236;-74
2022/04/08 08:14:03;;;;;;;2.07;0.50;;;9.10;99.90;;;;;;4935624;29;20207;-74
2022/04/08 08:16:30;;;;;;;2.53;0.40;;;9.30;99.90;;;;;;4936006;29;20213;-73
2022/04/08 08:18:59;;;;;;;2.27;0.57;;;9.30;99.90;;;;;;4936137;29;20625;-73
2022/04/08 08:21:25;;;;;;;5.70;0.67;;;9.30;99.90;;;;;;4930701;29;20228;-74
2022/04/08 08:23:53;;;;;;;2.77;0.50;;;9.50;99.90;;;;;;4934913;29;20201;-75
2022/04/08 08:26:19;;;;;;;0.67;0.53;;;9.70;99.90;;;;;;4934934;29;20681;-75
2022/04/08 08:28:46;;;;;;;3.40;0.70;;;9.80;99.90;;;;;;4936207;29;20215;-74
2022/04/08 08:31:15;;;;;;;1.70;0.60;;;9.70;99.90;;;;;;4935369;29;20327;-75
2022/04/08 08:33:43;;;;;;;2.03;0.50;;;9.70;99.90;;;;;;4935661;29;20287;-76
2022/04/08 08:36:11;;;;;;;3.40;0.70;;;9.80;99.90;;;;;;4930523;29;20566;-71
2022/04/08 08:38:38;;;;;;;1.33;0.60;;;9.80;99.90;;;;;;4933299;29;20279;-74
2022/04/08 08:41:07;;;;;;;4.37;0.60;;;9.70;99.90;;;;;;4933955;29;20228;-73
2022/04/08 08:43:35;;;;;;;2.17;0.70;;;9.70;99.90;;;;;;4934189;29;20201;-72
2022/04/08 08:46:04;;;;;;;2.47;0.70;;;9.60;99.90;;;;;;4934452;29;20207;-73
2022/04/08 08:48:33;;;;;;;1.83;0.50;;;9.70;99.90;;;;;;4931709;29;20878;-72
2022/04/08 08:51:02;;;;;;;2.00;0.50;;;9.90;99.90;;;;;;4929008;29;20246;-72
2022/04/08 08:53:32;;;;;;;2.97;0.60;;;10.00;99.90;;;;;;4933780;29;20205;-74
2022/04/08 08:56:00;;;;;;;1.57;0.40;;;10.10;99.90;;;;;;4921087;29;20203;-74
2022/04/08 08:58:29;;;;;;;0.80;0.50;;;10.10;99.90;;;;;;4933313;29;20208;-75
2022/04/08 09:00:56;;;;;;;0.90;0.40;;;10.10;99.90;;;;;;4934108;29;20303;-74
2022/04/08 09:03:28;;;;;;;4.13;0.40;;;10.10;99.90;;;;;;4934054;29;20216;-70
2022/04/08 09:05:55;;;;;;;1.03;0.47;;;10.20;99.90;;;;;;4925686;29;20666;-74
2022/04/08 09:08:22;;;;;;;1.43;0.50;;;10.10;99.90;;;;;;4933450;29;20244;-75
2022/04/08 09:10:51;;;;;;;4.10;0.70;;;10.10;99.90;;;;;;4933786;29;20236;-71
2022/04/08 09:13:20;;;;;;;1.77;0.40;;;10.10;99.90;;;;;;4931654;29;20232;-71
2022/04/08 09:15:53;;;;;;;1.57;0.40;;;10.10;99.90;;;;;;4932767;29;20201;-72
2022/04/08 09:18:21;;;;;;;1.30;0.70;;;10.30;99.90;;;;;;4932349;29;20205;-74
2022/04/08 09:20:49;;;;;;;2.97;0.70;;;10.40;99.90;;;;;;4933821;29;20229;-74
2022/04/08 09:23:17;;;;;;;2.63;0.50;;;10.10;99.90;;;;;;4930973;29;20265;-75
2022/04/08 09:25:45;;;;;;;2.90;0.80;;;10.10;99.90;;;;;;4933436;29;20208;-74
2022/04/08 09:28:16;;;;;;;0.73;0.40;;;10.00;99.90;;;;;;4934037;29;20209;-75
2022/04/08 09:30:48;;;;;;;2.40;0.50;;;10.00;99.90;;;;;;4933776;29;20239;-71
2022/04/08 09:33:18;;;;;;;2.43;0.60;;;10.00;99.90;;;;;;4934091;29;20208;-73
2022/04/08 09:35:46;;;;;;;3.10;0.50;;;10.00;99.90;;;;;;4934300;29;20628;-71
2022/04/08 09:38:19;;;;;;;5.00;0.50;;;10.00;99.90;;;;;;4930731;29;20204;-75
2022/04/08 09:40:47;;;;;;;1.30;0.50;;;10.10;99.90;;;;;;4930168;29;20224;-74
2022/04/08 09:43:16;;;;;;;1.10;0.40;;;10.10;99.90;;;;;;4933445;29;20232;-72
2022/04/08 09:45:46;;;;;;;4.10;0.60;;;10.10;99.90;;;;;;4934049;29;20211;-73
2022/04/08 09:48:12;;;;;;;2.70;0.90;;;10.10;99.90;;;;;;4936078;29;20602;-71
2022/04/08 09:50:40;;;;;;;6.47;1.27;;;9.90;99.90;;;;;;4934692;29;20236;-73
2022/04/08 09:53:07;;;;;;;4.30;0.47;;;9.80;99.90;;;;;;4934505;29;20208;-75
2022/04/08 09:55:36;;;;;;;3.80;0.40;;;9.80;99.90;;;;;;4933583;29;20325;-74
2022/04/08 09:58:05;;;;;;;2.37;0.70;;;10.00;99.90;;;;;;4933739;29;20228;-74
2022/04/08 10:00:33;;;;;;;1.73;0.60;;;10.10;99.90;;;;;;4933956;29;20211;-75
2022/04/08 10:03:00;;;;;;;5.40;0.70;;;10.10;99.90;;;;;;4934683;29;20208;-73
2022/04/08 10:05:28;;;;;;;3.47;0.90;;;10.10;99.90;;;;;;4936673;29;20209;-72
2022/04/08 10:07:57;;;;;;;1.17;0.50;;;10.00;99.90;;;;;;4937762;29;20267;-75
2022/04/08 10:10:29;;;;;;;1.47;0.60;;;10.10;99.90;;;;;;4937900;29;20230;-75
2022/04/08 10:13:28;;;;;;;3.77;0.70;;;10.10;99.90;;;;;;4937736;29;20212;-75
2022/04/08 10:16:05;;;;;;;4.57;1.00;;;10.20;99.90;;;;;;4926679;29;20205;-73
2022/04/08 10:18:37;;;;;;;2.23;0.90;;;10.20;99.90;;;;;;4937829;29;20207;-74
2022/04/08 10:21:04;;;;;;;2.47;0.70;;;10.30;99.90;;;;;;4937632;29;20248;-75
2022/04/08 10:23:37;;;;;;;2.03;0.40;;;10.40;99.90;;;;;;4937874;29;20577;-72
2022/04/08 10:26:05;;;;;;;1.97;0.60;;;10.50;99.90;;;;;;4937628;29;20197;-76
2022/04/08 10:28:36;;;;;;;3.53;0.67;;;10.20;99.90;;;;;;4929212;29;20288;-74
2022/04/08 10:31:15;;;;;;;3.00;0.57;;;10.20;99.90;;;;;;4937062;29;20283;-74
2022/04/08 10:33:50;;;;;;;1.73;0.67;;;10.30;99.90;;;;;;4922285;29;20200;-71
2022/04/08 10:36:17;;;;;;;1.10;0.50;;;10.50;99.90;;;;;;4936717;29;20212;-76
2022/04/08 10:38:44;;;;;;;1.17;0.50;;;10.50;99.90;;;;;;4937542;29;20205;-74
2022/04/08 10:41:11;;;;;;;2.57;0.43;;;10.60;99.90;;;;;;4937497;29;20224;-73
2022/04/08 10:43:49;;;;;;;1.93;0.40;;;10.40;99.90;;;;;;4921686;29;20201;-71
2022/04/08 10:46:31;;;;;;;1.07;0.40;;;10.40;99.90;;;;;;4936868;29;20212;-76
2022/04/08 10:48:59;;;;;;;3.17;0.47;;;10.50;99.90;;;;;;4937579;29;20211;-74
2022/04/08 10:51:30;;;;;;;2.73;0.50;;;10.60;99.90;;;;;;4937043;29;20240;-73
2022/04/08 10:54:04;;;;;;;2.83;0.67;;;10.70;99.90;;;;;;4936810;29;20205;-74
2022/04/08 10:56:34;;;;;;;3.53;0.50;;;10.60;99.90;;;;;;4936708;29;20224;-73
2022/04/08 10:59:01;;;;;;;2.23;0.50;;;10.80;99.90;;;;;;4938383;29;20287;-73
2022/04/08 11:01:34;;;;;;;2.73;0.70;;;11.00;99.80;;;;;;4938533;29;20221;-72
2022/04/08 11:04:03;;;;;;;2.57;0.60;;;11.20;99.90;;;;;;4936882;29;20269;-72
2022/04/08 11:06:31;;;;;;;0.90;0.37;;;11.00;99.80;;;;;;4936473;29;20237;-73
2022/04/08 11:09:04;;;;;;;0.97;0.43;;;10.90;99.20;;;;;;4936246;29;20231;-73
2022/04/08 11:11:33;;;;;;;1.03;0.30;;;11.00;99.10;;;;;;4935902;29;20247;-76
2022/04/08 11:14:00;;;;;;;1.80;0.43;;;11.00;99.20;;;;;;4935513;29;20215;-74
2022/04/08 11:16:31;;;;;;;0.83;0.50;;;11.10;98.90;;;;;;4935905;29;20292;-74
2022/04/08 11:18:59;;;;;;;2.53;0.50;;;11.10;98.50;;;;;;4924331;29;20213;-74
2022/04/08 11:21:26;;;;;;;2.93;0.60;;;11.10;98.80;;;;;;4918209;29;20234;-75
2022/04/08 11:24:00;;;;;;;1.33;0.40;;;11.10;99.00;;;;;;4917474;29;20210;-74
2022/04/08 11:26:29;;;;;;;1.63;0.63;;;11.30;97.60;;;;;;4917506;29;20216;-75
2022/04/08 11:28:56;;;;;;;1.00;0.37;;;11.30;94.20;;;;;;4918018;29;20225;-74
2022/04/08 11:31:23;;;;;;;3.40;0.80;;;11.50;94.50;;;;;;4924723;29;20241;-74
2022/04/08 11:33:51;;;;;;;1.00;0.43;;;11.70;95.00;;;;;;4935346;29;20574;-74
2022/04/08 11:36:23;;;;;;;0.83;0.30;;;11.80;95.50;;;;;;4933354;29;20211;-74
2022/04/08 11:38:50;;;;;;;1.20;0.30;;;11.90;95.30;;;;;;4936620;29;20205;-74
2022/04/08 11:41:20;;;;;;;0.40;0.40;;;11.80;94.20;;;;;;4936213;29;20225;-75
2022/04/08 11:43:47;;;;;;;0.40;0.20;;;11.70;94.20;;;;;;4936495;29;20213;-74
2022/04/08 11:46:15;;;;;;;1.57;0.30;;;11.70;94.60;;;;;;4930687;29;20670;-74
2022/04/08 11:48:42;;;;;;;1.03;0.33;;;11.60;93.80;;;;;;4916668;29;20670;-72
2022/04/08 11:51:11;;;;;;;1.23;0.50;;;11.60;92.00;;;;;;4932590;29;20220;-73
2022/04/08 11:53:46;;;;;;;0.83;0.30;;;11.80;91.90;;;;;;4935134;29;20236;-73
2022/04/08 11:56:19;;;;;;;1.80;0.40;;;12.00;90.40;;;;;;4934422;29;20215;-74
2022/04/08 11:58:55;;;;;;;0.93;0.30;;;12.20;88.30;;;;;;4957142;23;20228;-65
2022/04/08 12:01:22;;;;;;;0.67;0.23;;;12.30;86.80;;;;;;4954662;29;20227;-71
2022/04/08 12:03:51;;;;;;;0.90;0.40;;;12.40;88.30;;;;;;4955528;29;20207;-66
2022/04/08 12:06:19;;;;;;;1.17;0.20;;;12.30;90.20;;;;;;4955238;29;20208;-70
2022/04/08 12:08:47;;;;;;;2.73;0.57;;;12.30;90.70;;;;;;4955047;28;20253;-68
2022/04/08 12:11:14;;;;;;;0.40;0.30;;;12.20;90.10;;;;;;4945290;29;20815;-65
2022/04/08 12:13:41;;;;;;;0.67;0.37;;;12.10;90.20;;;;;;4947028;28;20547;-66
2022/04/08 12:16:10;;;;;;;0.87;0.30;;;11.90;90.60;;;;;;4936333;29;20217;-66
2022/04/08 12:18:48;;;;;;;0.77;0.33;;;12.10;91.00;;;;;;4936091;29;20209;-71
2022/04/08 12:21:20;;;;;;;2.10;0.30;;;12.20;90.40;;;;;;4935828;29;20236;-70
2022/04/08 12:23:50;;;;;;;1.80;0.30;;;12.40;88.30;;;;;;4949546;29;20231;-68
2022/04/08 12:26:18;;;;;;;1.50;0.53;;;12.30;88.60;;;;;;4935910;29;20264;-67
2022/04/08 12:28:45;;;;;;;0.50;0.23;;;12.10;91.00;;;;;;4944699;28;20212;-66
2022/04/08 12:31:13;;;;;;;4.47;0.40;;;12.30;88.10;;;;;;4954674;29;20228;-70
2022/04/08 12:33:40;;;;;;;0.70;0.30;;;12.40;89.50;;;;;;4951198;29;20205;-69
2022/04/08 12:36:09;;;;;;;1.93;0.50;;;12.20;90.00;;;;;;4935689;29;20544;-69
2022/04/08 12:38:36;;;;;;;3.97;0.50;;;12.30;89.20;;;;;;4935299;29;20213;-66
2022/04/08 12:41:04;;;;;;;1.10;0.40;;;12.40;88.90;;;;;;4935183;29;20235;-70
2022/04/08 12:43:31;;;;;;;0.67;0.30;;;12.50;90.30;;;;;;4935621;29;20223;-70
2022/04/08 12:45:58;;;;;;;2.33;0.53;;;12.20;90.10;;;;;;4940279;29;20292;-71
2022/04/08 12:48:25;;;;;;;2.63;0.33;;;12.30;90.30;;;;;;4954673;29;20212;-70
2022/04/08 12:50:52;;;;;;;3.33;0.70;;;12.20;91.10;;;;;;4946066;29;20244;-67
2022/04/08 12:53:20;;;;;;;2.33;0.50;;;12.20;90.70;;;;;;4935085;29;20295;-69
2022/04/08 12:55:47;;;;;;;2.43;0.60;;;12.40;90.20;;;;;;4944410;29;20208;-70